Home > Products > Valid Products > MTR

000
SAUS43 KAPX 231555
MTRAPN
METAR KAPN 231554Z AUTO 19012KT 4SM BR OVC006 08/07 A2979 RMK AO2
SLP093 T00780072





000
SAUS43 KAPX 231504
MTRAPN
SPECI KAPN 231503Z AUTO 18010KT 3SM BR BKN005 OVC010 07/07 A2978 RMK
AO2 T00720067





000
SAUS43 KAPX 231455
MTRAPN
METAR KAPN 231454Z AUTO 18010KT 2 1/2SM BR OVC005 07/07 A2977 RMK
AO2 SLP087 T00720067 58012





000
SAUS43 KAPX 231433
MTRAPN
SPECI KAPN 231432Z AUTO 18009KT 2SM BR OVC005 07/07 A2979 RMK AO2
VIS 1 RY 19 CIG 003V007 T00670067





000
SAUS43 KAPX 231423
MTRAPN
SPECI KAPN 231422Z AUTO 17007KT 1 1/4SM BR OVC003 06/06 A2979 RMK
AO2 VIS 1/2 RY 19 T00560056





000
SAUS43 KAPX 231413
MTRAPN
SPECI KAPN 231412Z AUTO 16007KT 3/4SM BR OVC003 05/05 A2979 RMK AO2
T00500050





000
SAUS43 KAPX 231355
MTRAPN
METAR KAPN 231354Z AUTO 15003KT 1/4SM FG VV003 04/04 A2979 RMK AO2
SLP095 T00390039





000
SAUS43 KAPX 231310
MTRAPN
SPECI KAPN 231309Z AUTO 10003KT 1/4SM FG VV002 04/04 A2981 RMK AO2
T00390039





000
SAUS43 KAPX 231255
MTRAPN
METAR KAPN 231254Z AUTO 00000KT 1/2SM FG VV002 04/04 A2981 RMK AO2
SLP101 T00390039





000
SAUS43 KAPX 231213
MTRAPN
SPECI KAPN 231211Z AUTO 14003KT 1/2SM FG VV002 03/03 A2981 RMK AO2
T00330033





000
SAUS43 KAPX 231204
MTRAPN
SPECI KAPN 231203Z AUTO 12004KT 1/4SM FG VV002 03/03 A2980 RMK AO2
T00330033





000
SAUS43 KAPX 231155
MTRAPN
METAR KAPN 231154Z AUTO 12003KT 1/2SM FG VV002 03/03 A2981 RMK AO2
SLP100 T00330033 10039 20017 56007





000
SAUS43 KAPX 231128
MTRAPN
SPECI KAPN 231127Z AUTO 14005KT 3/4SM BR OVC002 03/03 A2981 RMK AO2
T00330033





000
SAUS43 KAPX 231114
MTRAPN
SPECI KAPN 231113Z AUTO 13006KT 1 1/4SM BR OVC003 03/03 A2981 RMK
AO2 T00330033





000
SAUS43 KAPX 231055
MTRAPN
METAR KAPN 231054Z AUTO 14006KT 2 1/2SM BR OVC003 03/03 A2981 RMK
AO2 SLP100 T00330033





000
SAUS43 KAPX 231032
MTRAPN
SPECI KAPN 231031Z AUTO 15006KT 2 1/2SM BR OVC003 03/03 A2982 RMK
AO2 T00330033





000
SAUS43 KAPX 231032
MTRAPN
SPECI KAPN 231031Z AUTO 15006KT 2 1/2SM BR OVC003 03/03 A2982 RMK
AO2 T00330033





000
SAUS43 KAPX 231013
MTRAPN
SPECI KAPN 231012Z AUTO 13005KT 3SM BR OVC006 03/03 A2981 RMK AO2
CIG 004V008 T00330033





000
SAUS43 KAPX 230955
MTRAPN
METAR KAPN 230954Z AUTO 14006KT 2 1/2SM BR OVC007 03/03 A2981 RMK
AO2 CIG 006V010 SLP101 T00330033





000
SAUS43 KAPX 230955
MTRAPN
METAR KAPN 230954Z AUTO 14006KT 2 1/2SM BR OVC007 03/03 A2981 RMK
AO2 CIG 006V010 SLP101 T00330033





000
SAUS43 KAPX 230942
MTRAPN
SPECI KAPN 230941Z AUTO 14005KT 2 1/2SM BR OVC009 03/03 A2982 RMK
AO2 VIS 1 3/4 RY 19 CIG 007V011 T00330033





000
SAUS43 KAPX 230942
MTRAPN
SPECI KAPN 230941Z AUTO 14005KT 2 1/2SM BR OVC009 03/03 A2982 RMK
AO2 VIS 1 3/4 RY 19 CIG 007V011 T00330033





000
SAUS43 KAPX 230935
MTRAPN
SPECI KAPN 230934Z AUTO 14006KT 2SM BR OVC010 03/03 A2983 RMK AO2
VIS 1 RY 19 CIG 007V011 T00280028





000
SAUS43 KAPX 230916
MTRAPN
SPECI KAPN 230915Z AUTO 17005KT 1 1/2SM BR OVC010 03/03 A2984 RMK
AO2 VIS 1/2 RY 19 CIG 009V015 T00280028





000
SAUS43 KAPX 230907
MTRAPN
SPECI KAPN 230906Z AUTO 17006KT 3/4SM BR OVC012 02/02 A2984 RMK AO2
T00220022





000
SAUS43 KAPX 230855
MTRAPN
METAR KAPN 230854Z AUTO 16004KT 1SM BR OVC014 02/02 A2983 RMK AO2
SLP108 T00220022 58007





000
SAUS43 KAPX 230851
MTRAPN
SPECI KAPN 230849Z AUTO 13003KT 1 1/4SM BR OVC016 02/02 A2983 RMK
AO2 VIS 1/4 RY 19





000
SAUS43 KAPX 230818
MTRAPN
SPECI KAPN 230817Z AUTO 00000KT 1/2SM FG OVC017 02/02 A2984 RMK AO2
T00170017





000
SAUS43 KAPX 230803
MTRAPN
SPECI KAPN 230802Z AUTO 15004KT 1 1/4SM BR BKN019 02/02 A2984 RMK
AO2 VIS 1/2 RY 19 T00220022





000
SAUS43 KAPX 230755
MTRAPN
METAR KAPN 230754Z AUTO 17005KT 3/4SM BR OVC020 02/02 A2985 RMK AO2
SLP116 T00170017





000
SAUS43 KAPX 230753
MTRAPN
SPECI KAPN 230752Z AUTO 16005KT 3/4SM BR OVC020 02/02 A2985 RMK AO2





000
SAUS43 KAPX 230744
MTRAPN
SPECI KAPN 230742Z AUTO 16004KT 1/4SM FG BKN020 02/02 A2985 RMK AO2
T00170017





000
SAUS43 KAPX 230733
MTRAPN
SPECI KAPN 230731Z AUTO 19003KT 1 3/4SM BR BKN022 03/03 A2985 RMK
AO2 VIS 3/4 RY 19 T00280028





000
SAUS43 KAPX 230714
MTRAPN
SPECI KAPN 230713Z AUTO 21003KT 2 1/2SM BR SCT020 03/03 A2985 RMK
AO2 T00330033





000
SAUS43 KAPX 230655
MTRAPN
METAR KAPN 230654Z AUTO 21005KT 3SM BR OVC020 04/04 A2984 RMK AO2
SLP111 T00390039





000
SAUS43 KAPX 230641
MTRAPN
SPECI KAPN 230640Z AUTO 19006KT 3SM BR SCT003 OVC022 04/03 A2984 RMK
AO2 VIS 2 RY 19 T00390033





000
SAUS43 KAPX 230555
MTRAPN
METAR KAPN 230554Z AUTO 18004KT 3SM BR OVC004 03/03 A2984 RMK AO2
SLP111 T00330033 10044 20028 51009





000
SAUS43 KAPX 230548
MTRAPN
SPECI KAPN 230547Z AUTO 19003KT 3SM BR OVC004 03/03 A2984 RMK AO2
T00330033





000
SAUS43 KAPX 230455
MTRAPN
METAR KAPN 230454Z AUTO 18004KT 5SM BR OVC007 03/03 A2984 RMK AO2
SLP111 T00330033 400441039





000
SAUS43 KAPX 230355
MTRAPN
METAR KAPN 230354Z AUTO 19003KT 5SM BR OVC008 03/03 A2982 RMK AO2
VIS 2 1/2 RY 19 SLP106 T00280028





000
SAUS43 KAPX 230355
MTRAPN
METAR KAPN 230354Z AUTO 19003KT 5SM BR OVC008 03/03 A2982 RMK AO2
VIS 2 1/2 RY 19 SLP106 T00280028





000
SAUS43 KAPX 230335
MTRAPN
SPECI KAPN 230334Z AUTO 00000KT 5SM BR OVC008 03/03 A2982 RMK AO2
VIS 2 1/2 RY 19 CIG 006V011 T00330033





000
SAUS43 KAPX 230335
MTRAPN
SPECI KAPN 230334Z AUTO 00000KT 5SM BR OVC008 03/03 A2982 RMK AO2
VIS 2 1/2 RY 19 CIG 006V011 T00330033





000
SAUS43 KAPX 230327
MTRAPN
SPECI KAPN 230326Z AUTO 20004KT 4SM BR OVC010 03/03 A2981 RMK AO2
VIS 2 1/2 RY 19 CIG 006V011 T00330033





000
SAUS43 KAPX 230309
MTRAPN
SPECI KAPN 230308Z AUTO 20004KT 4SM BR OVC006 03/03 A2981 RMK AO2
VIS 2 1/2 RY 19 CIG 004V008 T00330033





000
SAUS43 KAPX 230255
MTRAPN
METAR KAPN 230254Z AUTO 20005KT 3SM BR OVC004 03/03 A2981 RMK AO2
VIS 2 RY 19 SLP102 T00330033 51003 TSNO





000
SAUS43 KAPX 230251
MTRAPN
SPECI KAPN 230250Z AUTO 20005KT 3SM BR OVC004 03/03 A2981 RMK AO2
VIS 2 RY 19





000
SAUS43 KAPX 230155
MTRAPN
METAR KAPN 230154Z AUTO 20007KT 2SM BR OVC003 03/03 A2982 RMK AO2
SLP103 T00330033





000
SAUS43 KAPX 230130
MTRAPN
SPECI KAPN 230128Z AUTO 20007KT 2 1/2SM BR OVC004 03/03 A2981 RMK
AO2 CIG 003V007 T00330028





000
SAUS43 KAPX 230055
MTRAPN
METAR KAPN 230054Z AUTO 20008KT 7SM OVC008 03/03 A2980 RMK AO2
SLP100 T00330028





000
SAUS43 KAPX 222355
MTRAPN
METAR KAPN 222354Z AUTO 22005KT 10SM OVC008 04/03 A2980 RMK AO2
SLP097 T00440033 10044 20028 51003





000
SAUS43 KAPX 222255
MTRAPN
METAR KAPN 222254Z AUTO 22005KT 10SM OVC008 04/03 A2980 RMK AO2
SLP097 T00440028





000
SAUS43 KAPX 222223
MTRAPN
SPECI KAPN 222221Z AUTO 22006KT 10SM OVC009 04/03 A2979 RMK AO2
T00440028





000
SAUS43 KAPX 222155
MTRAPN
METAR KAPN 222154Z AUTO 22007KT 10SM OVC010 04/03 A2979 RMK AO2
SLP097 T00440028





000
SAUS43 KAPX 222155
MTRAPN
METAR KAPN 222154Z AUTO 22007KT 10SM OVC010 04/03 A2979 RMK AO2
SLP097 T00440028





000
SAUS43 KAPX 222055
MTRAPN
METAR KAPN 222054Z AUTO 22006KT 10SM OVC011 04/02 A2979 RMK AO2
SLP095 T00440022 55002





000
SAUS43 KAPX 221955
MTRAPN
METAR KAPN 221954Z AUTO 22008KT 10SM OVC011 04/02 A2978 RMK AO2
SLP091 T00390022





000
SAUS43 KAPX 221855
MTRAPN
METAR KAPN 221854Z AUTO 23009G17KT 10SM OVC013 04/01 A2978 RMK AO2
SLP091 T00390011





000
SAUS43 KAPX 221755
MTRAPN
METAR KAPN 221754Z AUTO 22009KT 10SM OVC012 03/01 A2980 RMK AO2
SLP098 T00280006 10028 20000 58025





000
SAUS43 KAPX 221655
MTRAPN
METAR KAPN 221654Z AUTO 23010KT 10SM OVC013 03/00 A2983 RMK AO2
SLP110 T00280000





000
SAUS43 KAPX 221641
MTRAPN
SPECI KAPN 221640Z AUTO 24011G18KT 10SM OVC014 02/M01 A2984 RMK AO2
T00221006





000
SAUS43 KAPX 221555
MTRAPN
METAR KAPN 221554Z AUTO 22012G20KT 10SM OVC015 02/M02 A2986 RMK AO2
SLP121 T00171017





000
SAUS43 KAPX 221455
MTRAPN
METAR KAPN 221454Z AUTO 22014G20KT 10SM OVC020 01/M03 A2987 RMK AO2
SLP125 T00061033 58016





000
SAUS43 KAPX 221355
MTRAPN
METAR KAPN 221354Z AUTO 23012G19KT 10SM OVC021 01/M04 A2990 RMK AO2
SLP134 T00061039





000
SAUS43 KAPX 221333
MTRAPN
SPECI KAPN 221332Z AUTO 23008G18KT 10SM BKN023 BKN030 OVC035 00/M04
A2989 RMK AO2 T00001044





000
SAUS43 KAPX 221313
MTRAPN
SPECI KAPN 221311Z AUTO 22012KT 10SM SCT018 BKN033 00/M04 A2989 RMK
AO2 T00001044





000
SAUS43 KAPX 221255
MTRAPN
METAR KAPN 221254Z AUTO 22011G18KT 10SM BKN020 OVC033 00/M04 A2990
RMK AO2 SLP134 T00001044





000
SAUS43 KAPX 221248
MTRAPN
SPECI KAPN 221247Z AUTO 22012KT 10SM BKN020 BKN033 00/M04 A2990 RMK
AO2 T00001044





000
SAUS43 KAPX 221155
MTRAPN
METAR KAPN 221154Z AUTO 22013G19KT 10SM FEW021 BKN032 BKN042 00/M05
A2992 RMK AO2 SLP142 T00001050 10000 21033 58023





000
SAUS43 KAPX 221145
MTRAPN
SPECI KAPN 221144Z AUTO 21010G17KT 10SM FEW027 BKN034 BKN042 00/M05
A2992 RMK AO2 T00001050





000
SAUS43 KAPX 221055
MTRAPN
METAR KAPN 221054Z AUTO 21009KT 10SM OVC027 M01/M07 A2995 RMK AO2
SLP151 T10061067





000
SAUS43 KAPX 220955
MTRAPN
METAR KAPN 220954Z AUTO 21012KT 10SM OVC026 M02/M09 A2997 RMK AO2
SLP158 T10171089





000
SAUS43 KAPX 220955
MTRAPN
METAR KAPN 220954Z AUTO 21012KT 10SM OVC026 M02/M09 A2997 RMK AO2
SLP158 T10171089





000
SAUS43 KAPX 220918
MTRAPN
SPECI KAPN 220917Z AUTO 21010KT 10SM BKN023 M02/M10 A2998 RMK AO2
T10221100





000
SAUS43 KAPX 220855
MTRAPN
METAR KAPN 220854Z AUTO 21009G17KT 10SM CLR M02/M10 A2999 RMK AO2
SLP166 T10221100 56030





000
SAUS43 KAPX 220755
MTRAPN
METAR KAPN 220754Z AUTO 21012KT 10SM CLR M03/M11 A3002 RMK AO2
SLP176 T10281106





000
SAUS43 KAPX 220655
MTRAPN
METAR KAPN 220654Z AUTO 21013G19KT 10SM CLR M03/M10 A3004 RMK AO2
SLP184 T10281100





000
SAUS43 KAPX 220556
MTRAPN
METAR KAPN 220554Z AUTO 21010KT 10SM CLR M03/M09 A3008 RMK AO2
SLP197 T10331094 11033 21044 56030





000
SAUS43 KAPX 220455
MTRAPN
METAR KAPN 220454Z AUTO 20010G20KT 10SM CLR M04/M09 A3011 RMK AO2
SLPNO T10391094 410281139





000
SAUS43 KAPX 220355
MTRAPN
METAR KAPN 220354Z AUTO 21010KT 10SM CLR M04/M09 A3013 RMK AO2
SLP216 T10391094





000
SAUS43 KAPX 220255
MTRAPN
METAR KAPN 220254Z AUTO 20011KT 10SM OVC100 M04/M09 A3017 RMK AO2
SLP229 T10391094 58030





000
SAUS43 KAPX 220155
MTRAPN
METAR KAPN 220154Z AUTO 21011KT 10SM CLR M04/M10 A3021 RMK AO2
SLP245 T10441100





000
SAUS43 KAPX 220055
MTRAPN
METAR KAPN 220054Z AUTO 21010KT 10SM FEW100 M04/M11 A3024 RMK AO2
SLP253 T10441106





000
SAUS43 KAPX 212355
MTRAPN
METAR KAPN 212354Z AUTO 20009KT 10SM SCT100 M04/M11 A3026 RMK AO2
SLP262 T10441111 11028 21044 56013





000
SAUS43 KAPX 212255
MTRAPN
METAR KAPN 212254Z AUTO 21008KT 10SM OVC110 M04/M12 A3027 RMK AO2
SLP266 T10391117





000
SAUS43 KAPX 212155
MTRAPN
METAR KAPN 212154Z AUTO 21008KT 10SM OVC110 M03/M12 A3028 RMK AO2
SLP270 T10331117





000
SAUS43 KAPX 212055
MTRAPN
METAR KAPN 212054Z AUTO 22006KT 10SM SCT110 M03/M12 A3030 RMK AO2
SLP275 T10331117 56006





000
SAUS43 KAPX 211955
MTRAPN
METAR KAPN 211954Z AUTO 24012G16KT 10SM FEW035 FEW110 M03/M12 A3030
RMK AO2 SLP275 T10331117





000
SAUS43 KAPX 211856
MTRAPN
METAR KAPN 211854Z AUTO 26009G17KT 10SM BKN033 M03/M11 A3031 RMK AO2
SLP278 T10331106





000
SAUS43 KAPX 211555
MTRAPN
METAR KAPN 211554Z AUTO 24007KT 10SM CLR M06/M11 A3035 RMK AO2
SLP291 T10611111





000
SAUS43 KAPX 211555
MTRAPN
METAR KAPN 211554Z AUTO 24007KT 10SM CLR M06/M11 A3035 RMK AO2
SLP291 T10611111





000
SAUS43 KAPX 201955
MTRAPN
METAR KAPN 201954Z AUTO 30009G19KT 6SM -SN BKN038 BKN049 BKN090
M05/M13 A2979 RMK AO2 PK WND 26027/1932 SNB51 SLP100 P0000 T10501133





000
SAUS43 KAPX 201856
MTRAPN
METAR KAPN 201854Z AUTO 27012G20KT 10SM SCT037 M06/M12 A2977 RMK AO2
SLP092 T10561117





000
SAUS43 KAPX 201755
MTRAPN
METAR KAPN 201754Z AUTO 28009G25KT 10SM FEW027 SCT034 M04/M12 A2975
RMK AO2 PK WND 24027/1701 SNB08E23 SLP084 P0000 60000 T10441122
11044 21078 51004





000
SAUS43 KAPX 201744 COR
MTRAPN
SPECI KAPN 201740Z AUTO 26017G24KT 10SM SCT024 M05/M11 A2974 RMK AO2
PK WND 24027/1701 SNB08E23 P0000 T10501111





000
SAUS43 KAPX 201742 COR
MTRAPN
SPECI KAPN 201740Z AUTO 26017G24KT 10SM SCT024 M05/M11 A2974 RMK AO2
PK WND 24027/1701 SNB08E23 P0000 T10501111





000
SAUS43 KAPX 201724 COR
MTRAPN
SPECI KAPN 201721Z AUTO 25014G23KT 4SM -SN BKN026 BKN030 OVC036
M06/M11 A2974 RMK AO2 PK WND 24027/1701 VIS 1/2 RY 19 SNB08 P0000
T10561111





000
SAUS43 KAPX 201723 COR
MTRAPN
SPECI KAPN 201721Z AUTO 25014G23KT 4SM -SN BKN026 BKN030 OVC036
M06/M11 A2974 RMK AO2 PK WND 24027/1701 VIS 1/2 RY 19 SNB08 P0000
T10561111





000
SAUS43 KAPX 201722
MTRAPN
SPECI KAPN 201721Z AUTO 25014G23KT 4SM -SN BKN026 BKN030 OVC036
M06/M11 A2974 RMK AO2 PK WND 24027/1701 VIS 1/2 RY 19 SNB08 P0000
T10561111





000
SAUS43 KAPX 201719 COR
MTRAPN
SPECI KAPN 201713Z AUTO 25011G25KT 1 3/4SM -SN FEW018 BKN026 BKN033
M06/M11 A2975 RMK AO2 PK WND 24027/1701 VIS 1/2 RY 19 SNB08 P0000
T10561106





000
SAUS43 KAPX 201717 COR
MTRAPN
SPECI KAPN 201713Z AUTO 25011G25KT 1 3/4SM -SN FEW018 BKN026 BKN033
M06/M11 A2975 RMK AO2 PK WND 24027/1701 VIS 1/2 RY 19 SNB08 P0000
T10561106





000
SAUS43 KAPX 201716 COR
MTRAPN
SPECI KAPN 201713Z AUTO 25011G25KT 1 3/4SM -SN FEW018 BKN026 BKN033
M06/M11 A2975 RMK AO2 PK WND 24027/1701 VIS 1/2 RY 19 SNB08 P0000
T10561106





000
SAUS43 KAPX 201715 COR
MTRAPN
SPECI KAPN 201713Z AUTO 25011G25KT 1 3/4SM -SN FEW018 BKN026 BKN033
M06/M11 A2975 RMK AO2 PK WND 24027/1701 VIS 1/2 RY 19 SNB08 P0000
T10561106





000
SAUS43 KAPX 201655
MTRAPN
METAR KAPN 201654Z AUTO 25013G20KT 10SM SCT031 M05/M12 A2974 RMK AO2
SNE06 SLP082 P0000 T10501117





    US Dept of Commerce
    National Oceanic and Atmospheric Administration
    National Weather Service
    1325 East West Highway
    Silver Spring, MD 20910
    Page Author: NWS Internet Services Team
Disclaimer
Information Quality
Credits
Glossary
Privacy Policy
Freedom of Information Act (FOIA)
About Us
Career Opportunities